Time;durP1;ratioP1;P1;durP2;ratioP2;P2;SDS_P1;SDS_P2;PMS_P1;PMS_P2;Temp;Humidity;BMP_temperature;BMP_pressure;BME280_temperature;BME280_humidity;BME280_pressure;Samples;Min_cycle;Max_cycle;Signal;HPM_P1;HPM_P2
2022/01/13 00:00:31;;;;;;;;;;;0.70;99.90;;;;;;6166350;23;19903;-68
2022/01/13 00:02:56;;;;;;;;;;;0.70;99.90;;;;;;6163659;23;19896;-69
2022/01/13 00:05:28;;;;;;;;;;;0.70;99.90;;;;;;6164247;23;19912;-68
2022/01/13 00:07:58;;;;;;;;;;;0.70;99.90;;;;;;6166008;23;20220;-69
2022/01/13 00:10:24;;;;;;;;;;;0.70;99.90;;;;;;6165683;23;20004;-68
2022/01/13 00:12:57;;;;;;;;;;;0.60;99.90;;;;;;6166272;23;19900;-68
2022/01/13 00:15:39;;;;;;;;;;;0.70;99.90;;;;;;6166520;23;19930;-69
2022/01/13 00:18:14;;;;;;;;;;;0.60;99.90;;;;;;6164010;23;19920;-68
2022/01/13 00:26:07;;;;;;;;;;;0.60;99.90;;;;;;6175223;23;19915;-68
2022/01/13 00:28:33;;;;;;;;;;;0.60;99.90;;;;;;6164911;23;20171;-68
2022/01/13 00:31:03;;;;;;;;;;;0.60;99.90;;;;;;6165158;23;19907;-68
2022/01/13 00:33:29;;;;;;;;;;;0.60;99.90;;;;;;6166468;23;19951;-68
2022/01/13 00:35:59;;;;;;;;;;;0.60;99.90;;;;;;6165850;23;20068;-68
2022/01/13 00:38:25;;;;;;;;;;;0.60;99.90;;;;;;6165867;23;19961;-68
2022/01/13 00:40:51;;;;;;;;;;;0.70;99.90;;;;;;6164563;23;19896;-68
2022/01/13 00:43:17;;;;;;;;;;;0.70;99.90;;;;;;6165000;23;19908;-71
2022/01/13 00:45:42;;;;;;;;;;;0.60;99.90;;;;;;6137401;23;20175;-69
2022/01/13 00:48:08;;;;;;;;;;;0.60;99.90;;;;;;6159118;23;19896;-68
2022/01/13 00:50:34;;;;;;;;;;;0.60;99.90;;;;;;6164611;23;19908;-69
2022/01/13 00:53:00;;;;;;;;;;;0.60;99.90;;;;;;6163756;23;19900;-69
2022/01/13 00:55:33;;;;;;;;;;;0.60;99.90;;;;;;6162858;23;19944;-68
2022/01/13 00:57:58;;;;;;;;;;;0.60;99.90;;;;;;6162293;23;19896;-71
2022/01/13 01:00:24;;;;;;;;;;;0.60;99.90;;;;;;6162417;23;19897;-71
2022/01/13 01:02:49;;;;;;;;;;;0.60;99.90;;;;;;6165349;23;19897;-68
2022/01/13 01:05:15;;;;;;;;;;;0.60;99.90;;;;;;6164952;23;19952;-68
2022/01/13 01:07:40;;;;;;;;;;;0.70;99.90;;;;;;6164794;23;19904;-69
2022/01/13 01:10:06;;;;;;;;;;;0.70;99.90;;;;;;6163785;23;20195;-67
2022/01/13 01:12:34;;;;;;;;;;;0.80;99.90;;;;;;6161670;23;19904;-68
2022/01/13 01:15:00;;;;;;;;;;;0.70;99.90;;;;;;6161813;23;19896;-69
2022/01/13 01:17:26;;;;;;;;;;;0.80;99.90;;;;;;6163448;23;19903;-67
2022/01/13 01:19:52;;;;;;;;;;;0.80;99.90;;;;;;6154510;23;19909;-67
2022/01/13 01:27:26;;;;;;;;;;;0.80;99.90;;;;;;6135335;23;19908;-69
2022/01/13 01:29:57;;;;;;;;;;;0.80;99.90;;;;;;6135798;23;19904;-69
2022/01/13 01:32:24;;;;;;;;;;;0.80;99.90;;;;;;6108821;23;19907;-68
2022/01/13 01:34:56;;;;;;;;;;;0.80;99.90;;;;;;6110093;23;19897;-67
2022/01/13 01:37:24;;;;;;;;;;;0.80;99.90;;;;;;6134327;23;19896;-67
2022/01/13 01:39:50;;;;;;;;;;;0.80;99.90;;;;;;6136008;23;19904;-67
2022/01/13 01:42:18;;;;;;;;;;;0.80;99.90;;;;;;6135431;23;19897;-68
2022/01/13 01:44:45;;;;;;;;;;;0.80;99.90;;;;;;6136085;23;20240;-68
2022/01/13 01:47:13;;;;;;;;;;;0.80;99.90;;;;;;6134809;23;19908;-68
2022/01/13 01:49:41;;;;;;;;;;;0.80;99.90;;;;;;6110185;23;20088;-68
2022/01/13 01:52:08;;;;;;;;;;;0.80;99.90;;;;;;6109170;23;19904;-68
2022/01/13 01:54:34;;;;;;;;;;;0.90;99.90;;;;;;6135411;23;20203;-67
2022/01/13 01:56:59;;;;;;;;;;;0.90;99.90;;;;;;6135512;23;19897;-68
2022/01/13 01:59:29;;;;;;;;;;;0.80;99.90;;;;;;6135612;23;19897;-67
2022/01/13 02:01:55;;;;;;;;;;;0.90;99.90;;;;;;6135794;23;19904;-69
2022/01/13 02:04:22;;;;;;;;;;;0.80;99.90;;;;;;6134771;23;19897;-68
2022/01/13 02:06:48;;;;;;;;;;;0.80;99.90;;;;;;6135579;23;19897;-68
2022/01/13 02:09:16;;;;;;;;;;;0.90;99.90;;;;;;6134707;23;20057;-68
2022/01/13 02:11:44;;;;;;;;;;;0.90;99.90;;;;;;6135700;23;19908;-68
2022/01/13 02:14:33;;;;;;;;;;;0.90;99.90;;;;;;6109134;23;19901;-68
2022/01/13 02:17:12;;;;;;;;;;;0.90;99.90;;;;;;6135086;23;19948;-68
2022/01/13 02:19:40;;;;;;;;;;;0.90;99.90;;;;;;6134945;23;19909;-68
2022/01/13 02:22:06;;;;;;;;;;;0.90;99.90;;;;;;6134928;23;19901;-68
2022/01/13 02:24:32;;;;;;;;;;;0.80;99.90;;;;;;6110099;23;19913;-68
2022/01/13 02:26:58;;;;;;;;;;;0.90;99.90;;;;;;6135816;23;19896;-68
2022/01/13 02:29:23;;;;;;;;;;;0.90;99.90;;;;;;6085150;23;20218;-67
2022/01/13 02:31:49;;;;;;;;;;;0.90;99.90;;;;;;6134902;23;19914;-67
2022/01/13 02:34:14;;;;;;;;;;;0.90;99.90;;;;;;6134555;23;19952;-68
2022/01/13 02:36:42;;;;;;;;;;;0.90;99.90;;;;;;6135187;23;19900;-68
2022/01/13 02:39:07;;;;;;;;;;;0.90;99.90;;;;;;6108591;23;19897;-68
2022/01/13 02:41:33;;;;;;;;;;;0.90;99.90;;;;;;6134526;23;19897;-67
2022/01/13 02:43:59;;;;;;;;;;;1.00;99.90;;;;;;6109491;23;19943;-67
2022/01/13 02:49:07;;;;;;;;;;;0.90;99.90;;;;;;6135261;23;19903;-70
2022/01/13 02:51:33;;;;;;;;;;;0.90;99.90;;;;;;6109292;23;20234;-69
2022/01/13 02:53:59;;;;;;;;;;;0.90;99.90;;;;;;6134618;23;19905;-68
2022/01/13 02:56:25;;;;;;;;;;;0.90;99.90;;;;;;6108680;23;19946;-68
2022/01/13 02:58:50;;;;;;;;;;;0.80;99.90;;;;;;6134814;23;20196;-68
2022/01/13 03:01:16;;;;;;;;;;;0.80;99.90;;;;;;6108785;23;20219;-68
2022/01/13 03:03:43;;;;;;;;;;;0.80;99.90;;;;;;6134380;23;20241;-67
2022/01/13 03:06:10;;;;;;;;;;;0.80;99.90;;;;;;6134773;23;19914;-68
2022/01/13 03:08:36;;;;;;;;;;;0.80;99.90;;;;;;6108792;23;20089;-67
2022/01/13 03:11:02;;;;;;;;;;;0.80;99.90;;;;;;6134929;23;19940;-69
2022/01/13 03:13:29;;;;;;;;;;;0.80;99.90;;;;;;6129866;23;19965;-68
2022/01/13 03:15:55;;;;;;;;;;;0.80;99.90;;;;;;6130646;23;19897;-68
2022/01/13 03:18:21;;;;;;;;;;;0.70;99.90;;;;;;6130054;23;19948;-67
2022/01/13 03:20:46;;;;;;;;;;;0.80;99.90;;;;;;6142686;23;20187;-69
2022/01/13 03:23:16;;;;;;;;;;;0.80;99.90;;;;;;6159316;23;19897;-69
2022/01/13 03:25:44;;;;;;;;;;;0.80;99.90;;;;;;6159630;23;20074;-69
2022/01/13 03:28:15;;;;;;;;;;;0.80;99.90;;;;;;6159731;23;19897;-68
2022/01/13 03:30:41;;;;;;;;;;;0.80;99.90;;;;;;6160434;23;19986;-68
2022/01/13 03:33:08;;;;;;;;;;;0.80;99.90;;;;;;6160244;23;19904;-69
2022/01/13 03:35:34;;;;;;;;;;;0.80;99.90;;;;;;6158642;23;19920;-68
2022/01/13 03:38:00;;;;;;;;;;;0.80;99.90;;;;;;6159847;23;20078;-69
2022/01/13 03:40:26;;;;;;;;;;;0.80;99.90;;;;;;6157606;23;19897;-70
2022/01/13 03:42:53;;;;;;;;;;;0.80;99.90;;;;;;6155199;23;19897;-70
2022/01/13 03:45:19;;;;;;;;;;;0.90;99.90;;;;;;6162338;23;19931;-70
2022/01/13 03:47:45;;;;;;;;;;;0.80;99.90;;;;;;6161956;23;19896;-70
2022/01/13 03:50:11;;;;;;;;;;;0.90;99.90;;;;;;6163929;23;19931;-70
2022/01/13 03:53:09;;;;;;;;;;;0.90;99.90;;;;;;6162935;23;19901;-70
2022/01/13 03:55:35;;;;;;;;;;;0.90;99.90;;;;;;6099960;23;19897;-69
2022/01/13 03:58:19;;;;;;;;;;;0.90;99.90;;;;;;6163154;23;19920;-69
2022/01/13 04:00:59;;;;;;;;;;;0.80;99.90;;;;;;6164822;23;19900;-67
2022/01/13 04:03:24;;;;;;;;;;;0.90;99.90;;;;;;6165495;23;19896;-69
2022/01/13 04:06:03;;;;;;;;;;;0.90;99.90;;;;;;6166304;23;19904;-68
2022/01/13 04:08:30;;;;;;;;;;;0.90;99.90;;;;;;6163868;23;20009;-68
2022/01/13 04:11:05;;;;;;;;;;;0.90;99.90;;;;;;6164878;23;19951;-69
2022/01/13 04:14:13;;;;;;;;;;;0.90;99.90;;;;;;6164347;23;19980;-69
2022/01/13 04:16:21;;;;;;;;;;;0.90;99.90;;;;;;6157182;23;19900;-67
2022/01/13 04:18:47;;;;;;;;;;;0.90;99.90;;;;;;6164232;23;19896;-68
2022/01/13 04:21:12;;;;;;;;;;;0.90;99.90;;;;;;6163954;23;20210;-69
2022/01/13 04:23:38;;;;;;;;;;;0.90;99.90;;;;;;6166508;23;19900;-68
2022/01/13 04:26:07;;;;;;;;;;;0.90;99.90;;;;;;6164967;23;19905;-68
2022/01/13 04:28:34;;;;;;;;;;;0.90;99.90;;;;;;6165793;23;19956;-69
2022/01/13 04:31:00;;;;;;;;;;;1.00;99.90;;;;;;6165957;23;19901;-68
2022/01/13 04:33:33;;;;;;;;;;;0.90;99.90;;;;;;6163293;23;19947;-69
2022/01/13 04:35:59;;;;;;;;;;;0.90;99.90;;;;;;6164913;23;19896;-69
2022/01/13 04:38:25;;;;;;;;;;;1.00;99.90;;;;;;6165644;23;19943;-68
2022/01/13 04:40:55;;;;;;;;;;;1.00;99.90;;;;;;6163952;23;20210;-68
2022/01/13 04:43:22;;;;;;;;;;;1.00;99.90;;;;;;6162734;23;19897;-68
2022/01/13 04:45:48;;;;;;;;;;;0.90;99.90;;;;;;6166169;23;19940;-68
2022/01/13 04:48:14;;;;;;;;;;;0.90;99.90;;;;;;6165128;23;19920;-68
2022/01/13 04:50:40;;;;;;;;;;;0.90;99.90;;;;;;6164579;23;19963;-68
2022/01/13 04:53:07;;;;;;;;;;;0.90;99.90;;;;;;6165490;23;19900;-68
2022/01/13 04:55:35;;;;;;;;;;;0.90;99.90;;;;;;6165625;23;19905;-68
2022/01/13 04:58:01;;;;;;;;;;;0.90;99.90;;;;;;6165927;23;19903;-68
2022/01/13 05:00:27;;;;;;;;;;;0.90;99.90;;;;;;6165202;23;20083;-69
2022/01/13 05:02:53;;;;;;;;;;;1.00;99.90;;;;;;6165883;23;19903;-68
2022/01/13 05:05:18;;;;;;;;;;;0.90;99.90;;;;;;6165372;23;19897;-68
2022/01/13 05:07:44;;;;;;;;;;;0.90;99.90;;;;;;6166234;23;20122;-68
2022/01/13 05:10:10;;;;;;;;;;;0.90;99.90;;;;;;6161800;23;19900;-69
2022/01/13 05:12:43;;;;;;;;;;;0.90;99.90;;;;;;6161851;23;19904;-69
2022/01/13 05:15:12;;;;;;;;;;;0.90;99.90;;;;;;6159112;23;19897;-70
2022/01/13 05:20:17;;;;;;;;;;;0.90;99.90;;;;;;6152867;23;19913;-71
2022/01/13 05:22:43;;;;;;;;;;;1.00;99.90;;;;;;6135959;23;19916;-70
2022/01/13 05:25:09;;;;;;;;;;;0.90;99.90;;;;;;6109393;23;20091;-70
2022/01/13 05:27:35;;;;;;;;;;;0.90;99.90;;;;;;6135543;23;20243;-71
2022/01/13 05:30:02;;;;;;;;;;;0.90;99.90;;;;;;6110509;23;19919;-71
2022/01/13 05:32:28;;;;;;;;;;;1.00;99.90;;;;;;6135440;23;19901;-70
2022/01/13 05:34:54;;;;;;;;;;;0.90;99.90;;;;;;6135964;23;19904;-69
2022/01/13 05:37:19;;;;;;;;;;;1.00;99.90;;;;;;6135464;23;19904;-67
2022/01/13 05:39:45;;;;;;;;;;;1.00;99.90;;;;;;6110757;23;19897;-68
2022/01/13 05:42:10;;;;;;;;;;;1.00;99.90;;;;;;6110433;23;20194;-68
2022/01/13 05:44:39;;;;;;;;;;;0.90;99.90;;;;;;6134357;23;19905;-68
2022/01/13 05:47:06;;;;;;;;;;;1.00;99.90;;;;;;6110066;23;19904;-68
2022/01/13 05:49:31;;;;;;;;;;;1.10;99.90;;;;;;6109642;23;19907;-68
2022/01/13 05:51:57;;;;;;;;;;;1.00;99.90;;;;;;6135513;23;19900;-68
2022/01/13 05:54:22;;;;;;;;;;;1.00;99.90;;;;;;6109812;23;20235;-69
2022/01/13 05:56:48;;;;;;;;;;;1.00;99.90;;;;;;6135646;23;19920;-69
2022/01/13 05:59:14;;;;;;;;;;;1.00;99.90;;;;;;6109098;23;19897;-70
2022/01/13 06:01:39;;;;;;;;;;;0.90;99.90;;;;;;6110113;23;19897;-69
2022/01/13 06:04:05;;;;;;;;;;;0.90;99.90;;;;;;6136173;23;19944;-68
2022/01/13 06:06:30;;;;;;;;;;;0.90;99.90;;;;;;6109015;23;19897;-69
2022/01/13 06:08:56;;;;;;;;;;;0.90;99.90;;;;;;6135441;23;19977;-68
2022/01/13 06:11:23;;;;;;;;;;;0.90;99.90;;;;;;6108301;23;19901;-67
2022/01/13 06:13:49;;;;;;;;;;;0.90;99.90;;;;;;6109155;23;19908;-67
2022/01/13 06:16:15;;;;;;;;;;;0.90;99.90;;;;;;6109504;23;20080;-66
2022/01/13 06:18:41;;;;;;;;;;;0.90;99.90;;;;;;6109873;23;19896;-68
2022/01/13 06:21:07;;;;;;;;;;;0.90;99.90;;;;;;6136330;23;19924;-68
2022/01/13 06:23:32;;;;;;;;;;;0.90;99.90;;;;;;6108163;23;19985;-71
2022/01/13 06:25:58;;;;;;;;;;;0.90;99.90;;;;;;6109458;23;19919;-68
2022/01/13 06:28:24;;;;;;;;;;;0.90;99.90;;;;;;6135117;23;19952;-69
2022/01/13 06:30:49;;;;;;;;;;;0.90;99.90;;;;;;6109771;23;20215;-69
2022/01/13 06:33:15;;;;;;;;;;;0.90;99.90;;;;;;6109312;23;19908;-69
2022/01/13 06:35:41;;;;;;;;;;;1.00;99.90;;;;;;6135859;23;19904;-70
2022/01/13 06:38:06;;;;;;;;;;;1.00;99.90;;;;;;6135759;23;19919;-76
2022/01/13 06:40:32;;;;;;;;;;;1.00;99.90;;;;;;6134878;23;20038;-67
2022/01/13 06:42:58;;;;;;;;;;;1.00;99.90;;;;;;6134689;23;20116;-67
2022/01/13 06:45:24;;;;;;;;;;;1.00;99.90;;;;;;6134640;23;19943;-68
2022/01/13 06:47:49;;;;;;;;;;;1.00;99.90;;;;;;6109980;23;19936;-68
2022/01/13 06:50:17;;;;;;;;;;;1.00;99.90;;;;;;6134995;23;20123;-68
2022/01/13 06:52:42;;;;;;;;;;;1.00;99.90;;;;;;6135750;23;19901;-67
2022/01/13 06:55:08;;;;;;;;;;;0.90;99.90;;;;;;6109778;23;19903;-70
2022/01/13 06:57:34;;;;;;;;;;;0.90;99.90;;;;;;6134783;23;20145;-69
2022/01/13 07:00:00;;;;;;;;;;;1.00;99.90;;;;;;6109920;23;20168;-76
2022/01/13 07:02:28;;;;;;;;;;;0.90;99.90;;;;;;6134906;23;19920;-73
2022/01/13 07:04:53;;;;;;;;;;;0.90;99.90;;;;;;6109915;23;19896;-72
2022/01/13 07:07:19;;;;;;;;;;;0.90;99.90;;;;;;6135217;23;19904;-69
2022/01/13 07:09:44;;;;;;;;;;;1.00;99.90;;;;;;6135440;23;19916;-67
2022/01/13 07:12:10;;;;;;;;;;;1.10;99.90;;;;;;6134217;23;19904;-69
2022/01/13 07:14:36;;;;;;;;;;;1.10;99.90;;;;;;6109138;23;20173;-70
2022/01/13 07:17:03;;;;;;;;;;;1.10;99.90;;;;;;6136072;23;19941;-69
2022/01/13 07:19:28;;;;;;;;;;;1.10;99.90;;;;;;6134849;23;19909;-70
2022/01/13 07:21:54;;;;;;;;;;;1.10;99.90;;;;;;6110034;23;19944;-70
2022/01/13 07:24:19;;;;;;;;;;;1.00;99.90;;;;;;6134982;23;20208;-69
2022/01/13 07:26:45;;;;;;;;;;;1.10;99.90;;;;;;6110149;23;19989;-70
2022/01/13 07:29:11;;;;;;;;;;;1.10;99.90;;;;;;6108807;23;20198;-70
2022/01/13 07:31:37;;;;;;;;;;;1.10;99.90;;;;;;6134593;23;19900;-69
2022/01/13 07:34:03;;;;;;;;;;;1.10;99.90;;;;;;6129878;23;20001;-67
2022/01/13 07:36:28;;;;;;;;;;;1.10;99.90;;;;;;6131430;23;19897;-70
2022/01/13 07:38:54;;;;;;;;;;;1.10;99.90;;;;;;6106181;23;19897;-69
2022/01/13 07:41:20;;;;;;;;;;;1.10;99.90;;;;;;6106819;23;20116;-70
2022/01/13 07:43:49;;;;;;;;;;;1.10;99.90;;;;;;6133009;23;20173;-69
2022/01/13 07:46:15;;;;;;;;;;;1.10;99.90;;;;;;6132633;23;19903;-70
2022/01/13 07:48:40;;;;;;;;;;;1.10;99.90;;;;;;6133649;23;19896;-69
2022/01/13 07:51:25;;;;;;;;;;;1.10;99.90;;;;;;6107447;23;20232;-69
2022/01/13 07:53:50;;;;;;;;;;;1.10;99.90;;;;;;6109701;23;19901;-69
2022/01/13 07:56:16;;;;;;;;;;;1.10;99.90;;;;;;6109979;23;19919;-70
2022/01/13 07:58:43;;;;;;;;;;;1.00;99.90;;;;;;6137178;23;20180;-69
2022/01/13 08:01:09;;;;;;;;;;;1.00;99.90;;;;;;6136985;23;19897;-69
2022/01/13 08:03:35;;;;;;;;;;;1.00;99.90;;;;;;6134987;23;19904;-68
2022/01/13 08:06:01;;;;;;;;;;;1.00;99.90;;;;;;6136954;23;19897;-68
2022/01/13 08:08:27;;;;;;;;;;;1.00;99.90;;;;;;6110020;23;19903;-68
2022/01/13 08:10:52;;;;;;;;;;;1.00;99.90;;;;;;6112386;23;19901;-69
2022/01/13 08:13:18;;;;;;;;;;;1.00;99.90;;;;;;6136262;23;19924;-68
2022/01/13 08:15:44;;;;;;;;;;;1.00;99.90;;;;;;6137023;23;19920;-67
2022/01/13 08:20:53;;;;;;;;;;;1.00;99.90;;;;;;6136615;23;20284;-68
2022/01/13 08:23:19;;;;;;;;;;;1.00;99.90;;;;;;6135863;23;19901;-69
2022/01/13 08:25:45;;;;;;;;;;;0.90;99.90;;;;;;6136786;23;20087;-71
2022/01/13 08:28:11;;;;;;;;;;;0.90;99.90;;;;;;6136283;23;19901;-68
2022/01/13 08:30:37;;;;;;;;;;;0.90;99.90;;;;;;6136062;23;19948;-69
2022/01/13 08:33:03;;;;;;;;;;;1.00;99.90;;;;;;6109784;23;19901;-70
2022/01/13 08:35:29;;;;;;;;;;;1.00;99.90;;;;;;6135960;23;19896;-69
2022/01/13 08:37:56;;;;;;;;;;;1.00;99.90;;;;;;6136627;23;19965;-70
2022/01/13 08:40:22;;;;;;;;;;;1.00;99.90;;;;;;6135752;23;19901;-69
2022/01/13 08:42:47;;;;;;;;;;;1.00;99.90;;;;;;6110515;23;19901;-71
2022/01/13 08:45:13;;;;;;;;;;;1.00;99.90;;;;;;6136277;23;19952;-71
2022/01/13 08:47:39;;;;;;;;;;;1.00;99.90;;;;;;6135272;23;19897;-70
2022/01/13 08:50:07;;;;;;;;;;;1.00;99.90;;;;;;6110632;23;19897;-68
2022/01/13 08:52:33;;;;;;;;;;;1.00;99.90;;;;;;6110119;23;19917;-68
2022/01/13 08:54:59;;;;;;;;;;;1.00;99.90;;;;;;6136656;23;19896;-68
2022/01/13 08:57:25;;;;;;;;;;;1.00;99.90;;;;;;6135657;23;19896;-68
2022/01/13 08:59:51;;;;;;;;;;;1.00;99.90;;;;;;6136272;23;19897;-71
2022/01/13 09:02:17;;;;;;;;;;;1.10;99.90;;;;;;6135622;23;19919;-67
2022/01/13 09:04:43;;;;;;;;;;;1.20;99.90;;;;;;6134430;23;19948;-67
2022/01/13 09:07:09;;;;;;;;;;;1.20;99.90;;;;;;6136161;23;19897;-69
2022/01/13 09:09:35;;;;;;;;;;;1.20;99.90;;;;;;6110097;23;19959;-68
2022/01/13 09:12:01;;;;;;;;;;;1.30;99.90;;;;;;6135985;23;19901;-68
2022/01/13 09:14:28;;;;;;;;;;;1.30;99.90;;;;;;6109610;23;19961;-68
2022/01/13 09:16:54;;;;;;;;;;;1.30;99.90;;;;;;6136244;23;19896;-68
2022/01/13 09:19:19;;;;;;;;;;;1.30;99.90;;;;;;6109758;23;19905;-69
2022/01/13 09:21:46;;;;;;;;;;;1.30;99.90;;;;;;6133056;23;19917;-68
2022/01/13 09:24:22;;;;;;;;;;;1.30;99.90;;;;;;6107564;23;19897;-67
2022/01/13 09:26:47;;;;;;;;;;;1.40;99.90;;;;;;6136496;23;19903;-67
2022/01/13 09:29:13;;;;;;;;;;;1.40;99.90;;;;;;6135509;23;20060;-67
2022/01/13 09:31:40;;;;;;;;;;;1.50;99.90;;;;;;6110275;23;19944;-67
2022/01/13 09:34:06;;;;;;;;;;;1.50;99.90;;;;;;6135763;23;19901;-67
2022/01/13 09:36:32;;;;;;;;;;;1.50;99.90;;;;;;6109641;23;19944;-67
2022/01/13 09:38:59;;;;;;;;;;;1.60;99.90;;;;;;6136458;23;19896;-66
2022/01/13 09:41:26;;;;;;;;;;;1.60;99.90;;;;;;6135616;23;19904;-67
2022/01/13 09:43:52;;;;;;;;;;;1.80;99.90;;;;;;6110187;23;19919;-67
2022/01/13 09:46:18;;;;;;;;;;;1.80;99.90;;;;;;6135172;23;19904;-67
2022/01/13 09:48:45;;;;;;;;;;;1.90;99.90;;;;;;6135956;23;19897;-67
2022/01/13 09:51:11;;;;;;;;;;;1.90;99.90;;;;;;6136074;23;19901;-67
2022/01/13 09:53:36;;;;;;;;;;;1.90;99.90;;;;;;6106474;23;19939;-68
2022/01/13 09:56:03;;;;;;;;;;;2.00;99.90;;;;;;6133649;23;19900;-68
2022/01/13 09:58:28;;;;;;;;;;;2.10;99.90;;;;;;6134379;23;19904;-68
2022/01/13 10:00:54;;;;;;;;;;;2.20;99.90;;;;;;6136373;23;19897;-67
2022/01/13 10:03:30;;;;;;;;;;;2.20;99.90;;;;;;6135724;23;19920;-67
2022/01/13 10:06:00;;;;;;;;;;;2.20;99.90;;;;;;6135850;23;19897;-68
2022/01/13 10:08:44;;;;;;;;;;;2.20;99.90;;;;;;6109560;23;19947;-69
2022/01/13 10:11:23;;;;;;;;;;;2.30;99.90;;;;;;6110172;23;20091;-69
2022/01/13 10:14:00;;;;;;;;;;;2.30;99.90;;;;;;6110165;23;19908;-69
2022/01/13 10:16:26;;;;;;;;;;;2.30;99.90;;;;;;6105117;23;19904;-69
2022/01/13 10:18:52;;;;;;;;;;;2.40;99.90;;;;;;6130042;23;19904;-68
2022/01/13 10:21:19;;;;;;;;;;;2.40;99.90;;;;;;6131239;23;19909;-68
2022/01/13 10:24:01;;;;;;;;;;;2.40;99.90;;;;;;6110015;23;19897;-67
2022/01/13 10:26:27;;;;;;;;;;;2.40;99.90;;;;;;6135231;23;19896;-67
2022/01/13 10:28:53;;;;;;;;;;;2.50;99.90;;;;;;6136134;23;19897;-69
2022/01/13 10:31:18;;;;;;;;;;;2.60;99.90;;;;;;6134839;23;20130;-69
2022/01/13 10:33:44;;;;;;;;;;;2.70;99.90;;;;;;6136165;23;20112;-69
2022/01/13 10:36:11;;;;;;;;;;;2.70;99.90;;;;;;6135424;23;19897;-68
2022/01/13 10:38:53;;;;;;;;;;;2.70;99.90;;;;;;6134955;23;19904;-68
2022/01/13 10:44:23;;;;;;;;;;;2.70;99.90;;;;;;6135995;23;19896;-68
2022/01/13 10:47:01;;;;;;;;;;;2.70;99.90;;;;;;6128846;23;19897;-70
2022/01/13 10:49:34;;;;;;;;;;;2.70;99.90;;;;;;6108987;23;19932;-68
2022/01/13 10:52:26;;;;;;;;;;;2.60;99.90;;;;;;6108627;23;19952;-67
2022/01/13 10:54:53;;;;;;;;;;;2.70;99.90;;;;;;6135812;23;19948;-68
2022/01/13 10:57:20;;;;;;;;;;;2.70;99.90;;;;;;6135267;23;19897;-67
2022/01/13 10:59:46;;;;;;;;;;;2.80;99.90;;;;;;6135034;23;19897;-68
2022/01/13 11:02:12;;;;;;;;;;;2.80;99.90;;;;;;6135365;23;19936;-68
2022/01/13 11:04:38;;;;;;;;;;;2.90;99.90;;;;;;6109054;23;19944;-68
2022/01/13 11:07:11;;;;;;;;;;;2.90;99.90;;;;;;6109724;23;20168;-68
2022/01/13 11:09:42;;;;;;;;;;;2.80;99.90;;;;;;6109083;23;19896;-68
2022/01/13 11:12:08;;;;;;;;;;;2.80;99.90;;;;;;6109294;23;19920;-69
2022/01/13 11:14:40;;;;;;;;;;;2.80;99.90;;;;;;6109139;23;19908;-68
2022/01/13 11:17:06;;;;;;;;;;;2.80;99.90;;;;;;6135394;23;19896;-67
2022/01/13 11:19:32;;;;;;;;;;;2.80;99.90;;;;;;6134911;23;19929;-67
2022/01/13 11:21:58;;;;;;;;;;;2.90;99.90;;;;;;6108059;23;20177;-67
2022/01/13 11:24:24;;;;;;;;;;;3.00;99.90;;;;;;6109356;23;19940;-67
2022/01/13 11:26:50;;;;;;;;;;;2.90;99.90;;;;;;6134701;23;19948;-68
2022/01/13 11:29:17;;;;;;;;;;;2.80;99.90;;;;;;6135532;23;20197;-68
2022/01/13 11:31:43;;;;;;;;;;;2.80;99.90;;;;;;6109537;23;19923;-68
2022/01/13 11:34:09;;;;;;;;;;;2.90;99.90;;;;;;6109577;23;19901;-68
2022/01/13 11:36:34;;;;;;;;;;;2.90;99.90;;;;;;6109119;23;20130;-68
2022/01/13 11:39:01;;;;;;;;;;;2.90;99.90;;;;;;6109198;23;19897;-69
2022/01/13 11:41:27;;;;;;;;;;;2.80;99.90;;;;;;6108822;23;20141;-69
2022/01/13 11:43:53;;;;;;;;;;;2.80;99.90;;;;;;6109461;23;19897;-69
2022/01/13 11:46:19;;;;;;;;;;;2.90;99.90;;;;;;6134706;23;19901;-69
2022/01/13 11:49:10;;;;;;;;;;;3.00;99.90;;;;;;6135368;23;20234;-68
2022/01/13 11:51:42;;;;;;;;;;;3.10;99.90;;;;;;6109091;23;20129;-66
2022/01/13 11:54:08;;;;;;;;;;;3.20;99.90;;;;;;6134729;23;19901;-67
2022/01/13 11:56:33;;;;;;;;;;;3.30;99.90;;;;;;6133742;23;19901;-68
2022/01/13 11:58:59;;;;;;;;;;;3.20;99.90;;;;;;6132377;23;19896;-68
2022/01/13 12:01:32;;;;;;;;;;;3.30;99.90;;;;;;6106957;23;19924;-68
2022/01/13 12:03:59;;;;;;;;;;;3.30;99.90;;;;;;6135429;23;19897;-69
2022/01/13 12:06:32;;;;;;;;;;;3.50;99.90;;;;;;6108809;23;19952;-69
2022/01/13 12:08:58;;;;;;;;;;;3.40;99.90;;;;;;6107932;23;19920;-69
2022/01/13 12:11:33;;;;;;;;;;;3.40;99.90;;;;;;6134864;23;19901;-69
2022/01/13 12:13:59;;;;;;;;;;;3.40;99.90;;;;;;6135698;23;19940;-70
2022/01/13 12:16:43;;;;;;;;;;;3.40;99.90;;;;;;6108291;23;20121;-68
2022/01/13 12:19:14;;;;;;;;;;;3.40;99.90;;;;;;6109344;23;19897;-68
2022/01/13 12:21:48;;;;;;;;;;;3.40;99.90;;;;;;6086286;23;19949;-68
2022/01/13 12:24:18;;;;;;;;;;;3.40;99.90;;;;;;6111311;23;19903;-69
2022/01/13 12:26:46;;;;;;;;;;;3.40;99.90;;;;;;6111001;23;20189;-69
2022/01/13 12:29:20;;;;;;;;;;;3.40;99.90;;;;;;6137052;23;19935;-69
2022/01/13 12:31:53;;;;;;;;;;;3.40;99.90;;;;;;6136988;23;19901;-69
2022/01/13 12:34:20;;;;;;;;;;;3.50;99.90;;;;;;6136168;23;19948;-69
2022/01/13 12:36:46;;;;;;;;;;;3.50;99.90;;;;;;6136760;23;19917;-69
2022/01/13 12:39:14;;;;;;;;;;;3.50;99.90;;;;;;6109399;23;20199;-69
2022/01/13 12:41:58;;;;;;;;;;;3.50;99.90;;;;;;6136055;23;20249;-69
2022/01/13 12:45:28;;;;;;;;;;;3.50;99.90;;;;;;6110754;23;19945;-69
2022/01/13 12:47:10;;;;;;;;;;;3.60;99.90;;;;;;6136296;23;19995;-69
2022/01/13 12:49:36;;;;;;;;;;;3.70;99.90;;;;;;6135872;23;19924;-69
2022/01/13 12:52:03;;;;;;;;;;;3.60;99.90;;;;;;6110265;23;19901;-69
2022/01/13 12:54:29;;;;;;;;;;;3.70;99.90;;;;;;6135825;23;19901;-69
2022/01/13 12:56:54;;;;;;;;;;;3.70;99.90;;;;;;6110632;23;19896;-69
2022/01/13 12:59:22;;;;;;;;;;;3.70;99.90;;;;;;6136593;23;19904;-68
2022/01/13 13:01:47;;;;;;;;;;;3.70;99.90;;;;;;6136610;23;19944;-69
2022/01/13 13:04:13;;;;;;;;;;;3.70;99.90;;;;;;6110900;23;19920;-68
2022/01/13 13:06:41;;;;;;;;;;;3.80;99.90;;;;;;6135661;23;19940;-69
2022/01/13 13:09:08;;;;;;;;;;;3.90;99.90;;;;;;6135425;23;19897;-68
2022/01/13 13:11:34;;;;;;;;;;;3.80;99.90;;;;;;6136037;23;19907;-69
2022/01/13 13:14:01;;;;;;;;;;;3.70;99.90;;;;;;6136709;23;19939;-68
2022/01/13 13:16:26;;;;;;;;;;;3.70;99.90;;;;;;6135942;23;19896;-69
2022/01/13 13:18:52;;;;;;;;;;;3.70;99.90;;;;;;6110513;23;20061;-68
2022/01/13 13:21:18;;;;;;;;;;;3.70;99.90;;;;;;6135959;23;20213;-68
2022/01/13 13:23:44;;;;;;;;;;;3.70;99.90;;;;;;6135332;23;19901;-69
2022/01/13 13:26:14;;;;;;;;;;;3.70;99.90;;;;;;6110720;23;19896;-68
2022/01/13 13:28:39;;;;;;;;;;;3.70;99.90;;;;;;6109927;23;19896;-69
2022/01/13 13:31:39;;;;;;;;;;;3.80;99.90;;;;;;6110144;23;20176;-68
2022/01/13 13:34:12;;;;;;;;;;;3.70;99.90;;;;;;6058358;23;19900;-68
2022/01/13 13:36:39;;;;;;;;;;;3.70;99.90;;;;;;6135679;23;19896;-68
2022/01/13 13:39:12;;;;;;;;;;;3.70;99.90;;;;;;6109701;23;19897;-68
2022/01/13 13:41:41;;;;;;;;;;;3.70;99.90;;;;;;6135689;23;20172;-68
2022/01/13 13:44:07;;;;;;;;;;;3.70;99.90;;;;;;6110493;23;20040;-69
2022/01/13 13:46:33;;;;;;;;;;;3.80;99.90;;;;;;6135512;23;19897;-68
2022/01/13 13:48:59;;;;;;;;;;;3.80;99.90;;;;;;6109748;23;19897;-67
2022/01/13 13:51:25;;;;;;;;;;;3.80;99.90;;;;;;6109705;23;19965;-69
2022/01/13 13:54:10;;;;;;;;;;;3.80;99.90;;;;;;6109242;23;20219;-68
2022/01/13 13:56:48;;;;;;;;;;;3.80;99.90;;;;;;6134892;23;20202;-67
2022/01/13 13:59:16;;;;;;;;;;;3.80;99.90;;;;;;6109781;23;19908;-68
2022/01/13 14:01:51;;;;;;;;;;;3.80;99.90;;;;;;6109498;23;19931;-69
2022/01/13 14:04:29;;;;;;;;;;;3.80;99.90;;;;;;6109608;23;19904;-69
2022/01/13 14:06:54;;;;;;;;;;;3.80;99.90;;;;;;6109924;23;19928;-68
2022/01/13 14:09:34;;;;;;;;;;;3.80;99.90;;;;;;6135196;23;19897;-68
2022/01/13 14:12:00;;;;;;;;;;;3.80;99.90;;;;;;6109943;23;19952;-68
2022/01/13 14:14:34;;;;;;;;;;;3.80;99.90;;;;;;6134779;23;19897;-66
2022/01/13 14:16:59;;;;;;;;;;;3.80;99.90;;;;;;6135462;23;19897;-67
2022/01/13 14:19:25;;;;;;;;;;;3.80;99.90;;;;;;6108277;23;19921;-68
2022/01/13 14:21:51;;;;;;;;;;;3.80;99.90;;;;;;6134193;23;19915;-69
2022/01/13 14:24:32;;;;;;;;;;;3.80;99.90;;;;;;6135660;23;19916;-68
2022/01/13 14:27:05;;;;;;;;;;;3.80;99.90;;;;;;6109199;23;19897;-68
2022/01/13 14:29:31;;;;;;;;;;;3.80;99.90;;;;;;6109113;23;19896;-68
2022/01/13 14:32:12;;;;;;;;;;;3.90;99.90;;;;;;6135218;23;20081;-69
2022/01/13 14:34:41;;;;;;;;;;;3.90;99.90;;;;;;6109359;23;19917;-70
2022/01/13 14:37:07;;;;;;;;;;;4.00;99.90;;;;;;6135099;23;19900;-67
2022/01/13 14:39:33;;;;;;;;;;;4.00;99.90;;;;;;6134097;23;20125;-70
2022/01/13 14:41:58;;;;;;;;;;;4.10;99.90;;;;;;6132844;23;19897;-68
2022/01/13 14:44:24;;;;;;;;;;;4.10;99.90;;;;;;6108708;23;19944;-70
2022/01/13 14:46:56;;;;;;;;;;;4.10;99.90;;;;;;6133854;23;19917;-70
2022/01/13 14:49:27;;;;;;;;;;;4.20;99.90;;;;;;6134565;23;19897;-71
2022/01/13 14:51:54;;;;;;;;;;;4.20;99.90;;;;;;6134986;23;19943;-70
2022/01/13 14:54:20;;;;;;;;;;;4.20;99.90;;;;;;6134493;23;19897;-69
2022/01/13 14:56:46;;;;;;;;;;;4.20;99.90;;;;;;6134324;23;19903;-69